首页
METAR-TAF:

METAR-TAF

机场 :

本-古里安国际机场

特拉维夫 / 本·古里安, 以色列

纬度: 32-00N, 经度: 034-54E, 海拔: 40米

当前天气观测

该预报发布于26分钟前的19:50 UTC
风速5节,风向北转西北
温度 22°C
湿度 73%
气压 1015 hPa
能见度10公里或以上
1500米以下无云,无积雨云

METAR: LLBG 251950Z 33005KT CAVOK 22/17 Q1015 NOSIG

时间: 23:16 (20:16 UTC)

预报

该预报发布于3小时和15分钟前的17:01 UTC
预报有效从25日的 18点(UTC)到 26日的 18点(UTC)
风速4节,风向多变
能见度10公里或以上
少量云层高于1800英尺
几率 30%
从 25日的 23点(UTC)到 26日的 05点(UTC)
风速4节,风向东南
能見度: 6000
多云层高于1500英尺
成为
从 26日的 07点(UTC)到 26日的 09点(UTC)
风速10节,风向西北
能见度10公里或以上
1500米以下无云,无积雨云

TAF: LLBG 251701Z 2518/2618 VRB04KT 9999 FEW018 PROB30 2523/2605 14004KT 6000 BKN015 BECMG 2607/2609 32010KT CAVOK TX28/2612Z TN17/2603Z

超过4000个机场的气象观测和天气预报(METAR&TAF报告)。

可查询的气象台以黄色和红色小点在地图上表示。

将鼠标移到小点上方,可查看气象台名称。

然后点击查看天气观测和预报。

如需切换地图:点击带黑十字的绿色按钮放大地图;点击带横线的绿色按钮缩小地图;或者点击绿色箭头查看邻近地区的地图。


METAR-TAF: